Terminal Aerodrome Forecast
Issued by NWS

Home | Current Version | Previous Version | Text Only | Print | Product List | Glossary On
Versions: 1 2 3 4 5 6 7 8 9 10 11 12 13
000
FTUS46 KPDT 290500
TAFPSC
TAF
KPSC 290520Z 2906/3006 VRB04KT P6SM FEW250
     FM291600 22008KT P6SM SCT200
     FM292100 24012G20KT P6SM BKN200=

USA.gov is the U.S. government's official web portal to all federal, state and local government web resources and services.